Terminal Aerodrome Forecast
Issued by NWS

Home | Current Version | Previous Version | Text Only | Print | Product List | Glossary On
Versions: 1 2 3 4 5 6 7 8 9 10 11 12 13 14
492
FTUS41 KCAR 141122
TAFHUL
TAF
KHUL 141122Z 1412/1512 33011G18KT P6SM SCT090
     FM141800 29010G17KT P6SM FEW030
     FM150800 27007KT P6SM FEW250=

USA.gov is the U.S. government's official web portal to all federal, state and local government web resources and services.